createdAt,value
2018-07-05T05:05:44.832Z,95044.73
2018-07-05T05:11:05.768Z,95047.80
2018-07-05T05:16:26.838Z,95061.55
2018-07-05T05:21:48.624Z,95073.62
2018-07-05T05:27:09.806Z,95065.82
2018-07-05T05:32:31.108Z,95069.47
2018-07-05T05:37:52.296Z,95070.83
2018-07-05T05:43:13.322Z,95075.97
2018-07-05T05:48:35.178Z,95071.46
2018-07-05T05:53:56.291Z,95059.72
2018-07-05T05:59:18.107Z,95067.64
2018-07-05T06:04:39.285Z,95077.33
2018-07-05T06:10:00.383Z,95080.34
2018-07-05T06:15:21.461Z,95071.88
2018-07-05T06:20:42.630Z,95074.14
2018-07-05T06:26:03.881Z,95072.66
2018-07-05T06:31:25.743Z,95063.07
2018-07-05T06:36:47.699Z,95066.74
2018-07-05T06:42:08.914Z,95065.12
2018-07-05T06:47:30.801Z,95058.62
2018-07-05T06:52:51.902Z,95072.97
2018-07-05T06:58:13.011Z,95076.14
2018-07-05T07:03:34.024Z,95089.72
2018-07-05T07:08:55.078Z,95082.95
2018-07-05T07:14:16.921Z,95087.48
2018-07-05T07:19:38.800Z,95095.03
2018-07-05T07:25:00.685Z,95094.66
2018-07-05T07:30:22.213Z,95095.98
2018-07-05T07:35:43.404Z,95095.13
2018-07-05T07:41:04.474Z,95096.95
2018-07-05T07:46:07.011Z,95092.29
2018-07-05T07:51:09.567Z,95095.88
2018-07-05T07:56:12.114Z,95091.64
2018-07-05T08:01:14.648Z,95084.63
2018-07-05T08:06:17.191Z,95079.77
2018-07-05T08:11:20.489Z,95076.27
2018-07-05T08:16:23.794Z,95075.86
2018-07-05T08:21:26.329Z,95078.15
2018-07-05T08:26:28.877Z,95077.77
2018-07-05T08:31:31.451Z,95075.28
2018-07-05T08:36:34.003Z,95069.63
2018-07-05T08:41:36.547Z,95052.92
2018-07-05T08:46:39.087Z,95058.34
2018-07-05T08:51:42.393Z,95060.86
2018-07-05T08:56:44.931Z,95054.55
2018-07-05T09:01:47.475Z,95052.72
2018-07-05T09:06:50.015Z,95049.00
2018-07-05T09:11:52.583Z,95046.34
2018-07-05T09:16:55.139Z,95045.52
2018-07-05T09:21:57.684Z,95045.44
2018-07-05T09:27:00.230Z,95048.56
2018-07-05T09:32:02.766Z,95046.61
2018-07-05T09:37:05.381Z,95044.10
2018-07-05T09:42:07.859Z,95054.52
2018-07-05T09:47:10.403Z,95039.31
2018-07-05T09:52:12.942Z,95035.70
2018-07-05T09:57:15.491Z,95028.30
2018-07-05T10:02:18.024Z,95027.71
2018-07-05T10:07:20.579Z,95020.47
2018-07-05T10:12:23.123Z,95008.16
2018-07-05T10:17:25.669Z,95011.98
2018-07-05T10:22:28.213Z,95014.28
2018-07-05T10:27:30.750Z,95016.31
2018-07-05T10:32:51.878Z,95013.66
2018-07-05T10:37:54.385Z,95003.52
2018-07-05T10:43:15.379Z,94999.44
2018-07-05T10:48:36.591Z,95002.00
2018-07-05T10:53:57.677Z,94997.88
2018-07-05T10:59:19.518Z,94992.17
2018-07-05T11:04:40.543Z,94991.63
2018-07-05T11:10:01.735Z,94984.03
2018-07-05T11:15:22.791Z,94980.34
2018-07-05T11:20:43.866Z,94981.34
2018-07-05T11:26:04.984Z,94977.62
2018-07-05T11:31:27.049Z,94979.33
2018-07-05T11:36:48.158Z,94982.20
2018-07-05T11:42:10.102Z,94981.45
2018-07-05T11:47:31.149Z,94977.61
2018-07-05T11:52:52.415Z,94977.56
2018-07-05T11:58:13.378Z,94988.06
2018-07-05T12:03:34.559Z,94984.47
2018-07-05T12:08:55.670Z,94986.59
2018-07-05T12:14:16.907Z,94986.69
2018-07-05T12:19:37.991Z,95008.91
2018-07-05T12:24:59.274Z,94979.77
2018-07-05T12:30:20.419Z,94985.73
2018-07-05T12:35:41.407Z,94985.08
2018-07-05T12:41:03.201Z,94977.89
2018-07-05T12:46:24.401Z,94984.84
2018-07-05T12:51:45.651Z,95001.02
2018-07-05T12:57:06.759Z,94999.86
2018-07-05T13:02:27.877Z,95003.47
2018-07-05T13:07:49.198Z,94998.63
2018-07-05T13:13:10.250Z,94987.22
2018-07-05T13:18:31.440Z,95005.97
2018-07-05T13:23:52.550Z,95018.41
2018-07-05T13:29:13.856Z,95024.90
2018-07-05T13:34:35.075Z,95021.76
2018-07-05T13:39:56.139Z,95025.27
2018-07-05T13:45:17.205Z,95024.17
2018-07-05T13:50:39.591Z,95013.67
2018-07-05T13:56:01.359Z,95033.25
2018-07-05T14:01:22.442Z,95042.39
2018-07-05T14:06:43.380Z,95061.45
2018-07-05T14:12:05.500Z,95046.02
2018-07-05T14:17:26.806Z,95048.28
2018-07-05T14:22:47.840Z,95069.45
2018-07-05T14:28:08.978Z,95045.33
2018-07-05T14:33:30.166Z,95045.77
2018-07-05T14:38:51.283Z,95060.54
2018-07-05T14:44:13.035Z,95057.00
2018-07-05T14:49:34.882Z,95077.76
2018-07-05T14:54:56.729Z,95076.11
2018-07-05T15:00:18.627Z,95073.25
2018-07-05T15:05:39.700Z,95067.28
2018-07-05T15:11:01.557Z,95067.03
2018-07-05T15:16:22.691Z,95069.62
2018-07-05T15:21:43.757Z,95064.47
2018-07-05T15:27:05.012Z,95057.28
2018-07-05T15:32:26.253Z,95055.92
2018-07-05T15:37:47.437Z,95050.70
2018-07-05T15:43:08.515Z,95054.73
2018-07-05T15:48:30.414Z,95059.34
2018-07-05T15:53:51.589Z,95069.37
2018-07-05T16:04:48.799Z,95083.51
2018-07-05T16:10:09.976Z,95090.42
2018-07-05T16:15:31.005Z,95095.76
2018-07-05T16:20:52.102Z,95096.02
2018-07-05T16:26:14.046Z,95096.20
2018-07-05T16:31:36.016Z,95095.92
2018-07-05T16:36:56.967Z,95101.60
2018-07-05T16:42:18.280Z,95098.88
2018-07-05T16:47:40.107Z,95111.59
2018-07-05T16:53:02.138Z,95101.06
2018-07-05T16:58:23.525Z,95098.85
2018-07-05T17:03:44.592Z,95114.39
2018-07-05T17:09:05.741Z,95102.06
2018-07-05T17:14:27.652Z,95102.89
2018-07-05T17:19:48.730Z,95112.25
2018-07-05T17:25:10.578Z,95105.36
2018-07-05T17:30:36.547Z,95113.38
2018-07-05T17:35:57.527Z,95123.54
2018-07-05T17:41:18.474Z,95130.78
2018-07-05T17:46:40.266Z,95126.17
2018-07-05T17:52:01.223Z,95123.77
2018-07-05T17:57:22.823Z,95135.08
2018-07-05T18:02:44.152Z,95129.47
2018-07-05T18:08:05.306Z,95129.83
2018-07-05T18:13:26.381Z,95129.97
2018-07-05T18:18:48.328Z,95136.58
2018-07-05T18:24:10.874Z,95139.96
2018-07-05T18:29:31.868Z,95140.23
2018-07-05T18:34:53.014Z,95145.22
2018-07-05T18:40:14.185Z,95139.31
2018-07-05T18:45:36.007Z,95141.18
2018-07-05T18:50:57.100Z,95136.67
2018-07-05T18:56:18.295Z,95135.32
2018-07-05T19:01:39.396Z,95138.13
2018-07-05T19:07:00.544Z,95145.84
2018-07-05T19:12:22.487Z,95139.07
2018-07-05T19:17:44.412Z,95146.57
2018-07-05T19:23:05.433Z,95156.30
2018-07-05T19:28:26.501Z,95163.27
2018-07-05T19:33:47.567Z,95175.59
2018-07-05T19:39:08.915Z,95199.19
2018-07-05T19:44:30.016Z,95214.45
2018-07-05T19:49:51.442Z,95213.41
2018-07-05T19:55:12.754Z,95219.58
2018-07-05T20:00:35.769Z,95219.58
2018-07-05T20:05:56.926Z,95218.03
2018-07-05T20:11:18.222Z,95220.00
2018-07-05T20:16:39.323Z,95224.96
2018-07-05T20:22:01.160Z,95236.11
2018-07-05T20:27:23.017Z,95243.52
2018-07-05T20:32:44.987Z,95233.31
2018-07-05T20:38:05.956Z,95243.47
2018-07-05T20:43:27.156Z,95240.16
2018-07-05T20:48:50.401Z,95236.97
2018-07-05T20:54:12.247Z,95228.44
2018-07-05T20:59:34.095Z,95230.70
2018-07-05T21:04:55.210Z,95232.67
2018-07-05T21:10:16.458Z,95239.77
2018-07-05T21:15:38.324Z,95240.38
2018-07-05T21:21:02.875Z,95243.05
2018-07-05T21:26:23.850Z,95243.52
2018-07-05T21:31:45.022Z,95235.02
2018-07-05T21:37:06.021Z,95238.65
2018-07-05T21:42:27.131Z,95241.68
2018-07-05T21:47:48.260Z,95242.46
2018-07-05T21:53:09.303Z,95240.20
2018-07-05T21:58:30.314Z,95235.44
2018-07-05T22:03:51.973Z,95236.56
2018-07-05T22:09:13.047Z,95239.23
2018-07-05T22:14:34.145Z,95234.87
2018-07-05T22:25:56.992Z,95240.52
